createdAt,value
2022-12-31T00:01:30.527Z,3.92
2022-12-31T00:03:59.740Z,3.67
2022-12-31T00:06:34.904Z,3.33
2022-12-31T00:09:06.471Z,3.42
2022-12-31T00:11:36.662Z,4.53
2022-12-31T00:14:06.516Z,5.30
2022-12-31T00:16:39.157Z,3.17
2022-12-31T00:21:38.594Z,4.20
2022-12-31T00:24:08.811Z,3.52
2022-12-31T00:26:38.494Z,2.60
2022-12-31T00:29:07.728Z,4.20
2022-12-31T00:31:38.996Z,5.92
2022-12-31T00:34:08.789Z,6.60
2022-12-31T00:36:39.567Z,3.98
2022-12-31T00:39:09.433Z,4.65
2022-12-31T00:41:39.023Z,4.92
2022-12-31T00:44:08.601Z,5.35
2022-12-31T00:49:06.805Z,6.35
2022-12-31T00:51:36.543Z,6.80
2022-12-31T00:54:06.135Z,5.65
2022-12-31T00:56:35.562Z,7.97
2022-12-31T00:59:04.963Z,7.25
2022-12-31T01:01:36.895Z,5.97
2022-12-31T01:04:09.275Z,6.62
2022-12-31T01:06:38.845Z,6.45
2022-12-31T01:09:08.932Z,7.60
2022-12-31T01:11:38.463Z,9.10
2022-12-31T01:14:16.426Z,8.05
2022-12-31T01:16:47.929Z,8.93
2022-12-31T01:19:20.349Z,5.95
2022-12-31T01:21:50.319Z,8.08
2022-12-31T01:24:20.760Z,7.83
2022-12-31T01:26:51.899Z,9.40
2022-12-31T01:29:21.516Z,6.97
2022-12-31T01:31:51.011Z,8.28
2022-12-31T01:34:20.651Z,9.20
2022-12-31T01:36:50.015Z,10.15
2022-12-31T01:39:19.585Z,7.22
2022-12-31T01:41:49.578Z,9.28
2022-12-31T01:44:31.277Z,6.83
2022-12-31T01:47:03.218Z,10.40
2022-12-31T01:49:41.677Z,11.33
2022-12-31T01:52:32.179Z,12.78
2022-12-31T01:55:04.941Z,13.03
2022-12-31T01:57:34.220Z,14.80
2022-12-31T02:00:04.811Z,16.97
2022-12-31T02:02:33.946Z,16.12
2022-12-31T02:05:06.417Z,18.45
2022-12-31T02:07:36.323Z,18.67
2022-12-31T02:10:06.285Z,20.68
2022-12-31T02:12:35.963Z,23.85
2022-12-31T02:15:05.897Z,23.83
2022-12-31T02:17:58.266Z,20.10
2022-12-31T02:20:42.639Z,14.60
2022-12-31T02:23:27.152Z,13.35
2022-12-31T02:26:02.963Z,10.32
2022-12-31T02:28:44.312Z,6.08
2022-12-31T02:31:25.550Z,6.75
2022-12-31T02:33:57.877Z,4.70
2022-12-31T02:36:33.295Z,4.12
2022-12-31T02:39:05.454Z,6.03
2022-12-31T02:41:53.948Z,5.42
2022-12-31T02:44:28.918Z,5.97
2022-12-31T02:47:10.378Z,3.75
2022-12-31T02:49:59.373Z,4.72
2022-12-31T02:52:48.784Z,5.17
2022-12-31T02:55:24.146Z,6.87
2022-12-31T02:58:14.921Z,4.47
2022-12-31T03:01:10.236Z,4.83
2022-12-31T03:03:40.167Z,5.92
2022-12-31T03:06:10.493Z,7.95
2022-12-31T03:08:44.732Z,6.35
2022-12-31T03:11:15.567Z,7.15
2022-12-31T03:13:45.125Z,5.72
2022-12-31T03:16:14.336Z,8.15
2022-12-31T03:19:02.356Z,10.68
2022-12-31T03:21:49.606Z,8.80
2022-12-31T03:24:36.897Z,7.58
2022-12-31T03:27:06.088Z,8.85
2022-12-31T03:29:35.563Z,9.53
2022-12-31T03:32:04.998Z,11.40
2022-12-31T03:34:34.228Z,9.05
2022-12-31T03:37:04.703Z,10.75
2022-12-31T03:39:34.367Z,11.40
2022-12-31T03:42:03.842Z,11.68
2022-12-31T03:44:33.429Z,11.28
2022-12-31T03:47:02.660Z,9.53
2022-12-31T03:49:32.142Z,11.50
2022-12-31T03:52:03.140Z,8.65
2022-12-31T03:54:32.668Z,8.28
2022-12-31T03:57:01.936Z,9.40
2022-12-31T03:59:31.119Z,6.85
2022-12-31T04:02:00.765Z,7.37
2022-12-31T04:04:30.153Z,9.30
2022-12-31T04:06:59.388Z,9.75
2022-12-31T04:09:29.039Z,11.43
2022-12-31T04:11:58.262Z,11.43
2022-12-31T04:14:27.706Z,11.85
2022-12-31T04:16:56.933Z,13.10
2022-12-31T04:19:26.383Z,14.85
2022-12-31T04:21:55.616Z,15.30
2022-12-31T04:24:25.213Z,13.62
2022-12-31T04:26:54.422Z,16.70
2022-12-31T04:29:23.918Z,13.13
2022-12-31T04:31:53.170Z,14.78
2022-12-31T04:34:22.567Z,13.30
2022-12-31T04:36:51.871Z,3.27
2022-12-31T04:39:21.203Z,0.10
2022-12-31T04:41:51.374Z,0.00
2022-12-31T04:44:21.249Z,0.85
2022-12-31T04:46:50.548Z,0.00
2022-12-31T04:49:20.277Z,0.13
2022-12-31T04:51:49.513Z,0.00
2022-12-31T04:54:18.855Z,0.45
2022-12-31T04:56:48.079Z,0.00
2022-12-31T04:59:17.617Z,0.10
2022-12-31T05:01:47.003Z,0.10
2022-12-31T05:04:16.576Z,0.10
2022-12-31T05:06:45.963Z,0.20
2022-12-31T05:09:15.488Z,0.28
2022-12-31T05:11:44.780Z,0.00
2022-12-31T05:14:14.021Z,0.00
2022-12-31T05:16:43.285Z,0.00
2022-12-31T05:19:12.537Z,0.00
2022-12-31T05:21:41.757Z,0.00
2022-12-31T05:24:11.340Z,0.10
2022-12-31T05:26:40.558Z,0.13
2022-12-31T05:29:09.995Z,0.10
2022-12-31T05:31:39.209Z,0.20
2022-12-31T05:34:08.615Z,0.37
2022-12-31T05:36:37.839Z,0.42
2022-12-31T05:39:07.073Z,0.00
2022-12-31T05:41:36.305Z,0.20
2022-12-31T05:44:05.851Z,0.40
2022-12-31T05:46:35.087Z,0.42
2022-12-31T05:49:04.288Z,0.03
2022-12-31T05:51:33.693Z,0.25
2022-12-31T05:54:03.340Z,0.03
2022-12-31T05:56:32.583Z,0.08
2022-12-31T05:59:02.460Z,0.28
2022-12-31T06:01:31.692Z,0.25
2022-12-31T06:04:02.157Z,0.40
2022-12-31T06:06:31.365Z,0.00
2022-12-31T06:09:00.981Z,0.00
2022-12-31T06:11:30.180Z,0.00
2022-12-31T06:13:59.796Z,0.08
2022-12-31T06:16:29.080Z,0.00
2022-12-31T06:18:58.670Z,0.00
2022-12-31T06:21:28.181Z,0.08
2022-12-31T06:23:58.842Z,0.10
2022-12-31T06:26:29.335Z,0.65
2022-12-31T06:28:58.904Z,0.00
2022-12-31T06:31:28.186Z,0.00
2022-12-31T06:33:58.186Z,0.10
2022-12-31T06:36:27.453Z,0.00
2022-12-31T06:38:56.881Z,0.20
2022-12-31T06:41:26.071Z,0.10
2022-12-31T06:43:55.782Z,0.00
2022-12-31T06:46:25.040Z,0.00
2022-12-31T06:48:54.288Z,1.27
2022-12-31T06:51:23.768Z,0.30
2022-12-31T06:53:53.462Z,1.55
2022-12-31T06:56:33.047Z,0.00
2022-12-31T06:58:57.629Z,0.00
2022-12-31T07:01:39.658Z,0.10
2022-12-31T07:04:32.068Z,0.00
2022-12-31T07:07:25.588Z,0.10
2022-12-31T07:10:27.327Z,0.00
2022-12-31T07:13:10.233Z,0.00
2022-12-31T07:16:04.643Z,0.53
2022-12-31T07:18:49.485Z,2.72
2022-12-31T07:21:21.997Z,0.00
2022-12-31T07:23:52.117Z,0.00
2022-12-31T07:26:33.050Z,0.10
2022-12-31T07:29:05.696Z,0.00
2022-12-31T07:34:11.482Z,0.00
2022-12-31T07:36:49.576Z,0.28
2022-12-31T07:39:22.412Z,0.00
2022-12-31T07:42:13.066Z,0.00
2022-12-31T07:44:46.143Z,0.00
2022-12-31T07:47:23.668Z,0.00
2022-12-31T07:49:53.565Z,0.00
2022-12-31T07:52:23.587Z,0.00
2022-12-31T07:54:52.849Z,0.00
2022-12-31T07:57:22.728Z,0.70
2022-12-31T08:00:10.109Z,0.00
2022-12-31T08:02:44.675Z,0.20
2022-12-31T08:07:56.372Z,0.20
2022-12-31T08:10:41.047Z,0.00
2022-12-31T08:13:12.068Z,0.00
2022-12-31T08:15:42.011Z,0.03
2022-12-31T08:18:12.330Z,0.15
2022-12-31T08:20:47.560Z,0.00
2022-12-31T08:23:19.925Z,0.10
2022-12-31T08:26:04.355Z,0.00
2022-12-31T08:29:07.232Z,0.00
2022-12-31T08:31:39.657Z,0.17
2022-12-31T08:37:03.608Z,1.75
2022-12-31T08:39:47.591Z,0.15
2022-12-31T08:42:29.083Z,0.00
2022-12-31T08:45:22.736Z,0.00
2022-12-31T08:48:11.552Z,0.00
2022-12-31T08:50:41.385Z,0.00
2022-12-31T08:53:10.726Z,0.10
2022-12-31T08:55:42.895Z,0.30
2022-12-31T08:58:47.087Z,0.00
2022-12-31T09:01:18.751Z,0.00
2022-12-31T09:04:06.293Z,0.00
2022-12-31T09:06:39.363Z,0.10
2022-12-31T09:09:23.845Z,0.00
2022-12-31T09:12:08.506Z,0.00
2022-12-31T09:14:43.964Z,0.08
2022-12-31T09:17:49.692Z,0.00
2022-12-31T09:20:42.437Z,0.10
2022-12-31T09:23:02.869Z,0.00
2022-12-31T09:25:33.156Z,0.00
2022-12-31T09:28:21.058Z,1.00
2022-12-31T09:31:08.528Z,0.90
2022-12-31T09:33:52.812Z,0.55
2022-12-31T09:36:33.685Z,0.00
2022-12-31T09:39:11.814Z,0.00
2022-12-31T09:41:55.932Z,0.00
2022-12-31T09:44:31.546Z,0.10
2022-12-31T09:47:23.280Z,0.10
2022-12-31T09:50:16.117Z,0.00
2022-12-31T09:53:19.075Z,0.03
2022-12-31T09:56:13.088Z,0.00
2022-12-31T09:58:54.637Z,0.10
2022-12-31T10:01:33.576Z,0.08
2022-12-31T10:04:30.326Z,0.00
2022-12-31T10:07:03.035Z,15.00
2022-12-31T10:10:00.193Z,0.10
2022-12-31T10:13:03.257Z,1.32
2022-12-31T10:16:01.702Z,0.00
2022-12-31T10:19:02.935Z,0.40
2022-12-31T10:21:38.378Z,0.00
2022-12-31T10:24:36.926Z,0.00
2022-12-31T10:27:16.578Z,0.00
2022-12-31T10:29:58.184Z,0.25
2022-12-31T10:32:50.160Z,4.28
2022-12-31T10:35:28.788Z,0.30
2022-12-31T10:38:04.268Z,0.00
2022-12-31T10:41:04.555Z,0.00
2022-12-31T10:44:05.446Z,0.00
2022-12-31T10:46:55.908Z,0.00
2022-12-31T10:49:57.746Z,0.60
2022-12-31T10:52:54.264Z,0.30
2022-12-31T10:55:49.318Z,0.00
2022-12-31T10:58:41.567Z,0.00
2022-12-31T11:01:14.200Z,0.25
2022-12-31T11:04:06.262Z,0.00
2022-12-31T11:06:47.612Z,0.75
2022-12-31T11:09:34.741Z,0.00
2022-12-31T11:12:11.943Z,0.30
2022-12-31T11:14:56.460Z,0.10
2022-12-31T11:17:40.958Z,0.03
2022-12-31T11:20:25.400Z,0.30
2022-12-31T11:23:16.222Z,0.20
2022-12-31T11:26:10.092Z,0.10
2022-12-31T11:28:57.517Z,0.00
2022-12-31T11:31:30.090Z,0.00
2022-12-31T11:36:44.239Z,0.25
2022-12-31T11:39:31.762Z,0.35
2022-12-31T11:42:16.092Z,0.00
2022-12-31T11:45:00.162Z,0.10
2022-12-31T11:47:41.162Z,0.42
2022-12-31T11:50:15.702Z,0.42
2022-12-31T11:53:23.123Z,0.10
2022-12-31T11:56:01.219Z,0.20
2022-12-31T11:58:30.780Z,3.47
2022-12-31T12:01:12.944Z,0.62
2022-12-31T12:11:19.018Z,0.45
2022-12-31T12:13:48.941Z,0.00
2022-12-31T12:16:18.297Z,0.00
2022-12-31T12:19:05.662Z,0.75
2022-12-31T12:21:35.661Z,0.00
2022-12-31T12:24:08.335Z,0.80
2022-12-31T12:29:18.386Z,0.25
2022-12-31T12:31:58.989Z,0.00
2022-12-31T12:34:41.979Z,0.33
2022-12-31T12:37:32.742Z,0.00
2022-12-31T12:40:20.073Z,0.00
2022-12-31T12:42:50.856Z,0.10
2022-12-31T12:45:39.313Z,0.00
2022-12-31T12:48:11.819Z,0.05
2022-12-31T12:50:43.941Z,0.00
2022-12-31T12:53:34.965Z,0.35
2022-12-31T12:56:22.680Z,0.00
2022-12-31T12:59:07.163Z,1.87
2022-12-31T13:01:42.937Z,0.25
2022-12-31T13:04:37.849Z,0.00
2022-12-31T13:07:28.535Z,0.30
2022-12-31T13:10:10.414Z,0.03
2022-12-31T13:15:35.174Z,0.00
2022-12-31T13:18:19.718Z,0.10
2022-12-31T13:20:57.120Z,0.00
2022-12-31T13:23:41.535Z,0.13
2022-12-31T13:26:14.044Z,0.00
2022-12-31T13:28:44.907Z,0.90
2022-12-31T13:31:17.508Z,0.00
2022-12-31T13:36:20.412Z,0.00
2022-12-31T13:38:55.426Z,0.10
2022-12-31T13:41:27.726Z,0.03
2022-12-31T13:44:18.467Z,0.00
2022-12-31T13:47:18.121Z,0.40
2022-12-31T13:49:49.870Z,0.00
2022-12-31T13:52:37.223Z,1.80
2022-12-31T13:55:38.798Z,0.13
2022-12-31T13:58:17.708Z,0.00
2022-12-31T14:01:15.190Z,39.25
2022-12-31T14:04:05.648Z,0.98
2022-12-31T14:06:53.637Z,0.13
2022-12-31T14:09:28.822Z,6.10
2022-12-31T14:12:17.949Z,9.90
2022-12-31T14:14:53.008Z,11.88
2022-12-31T14:17:58.821Z,10.10
2022-12-31T14:20:49.108Z,10.55
2022-12-31T14:23:38.081Z,15.75
2022-12-31T14:26:10.488Z,8.85
2022-12-31T14:28:50.910Z,10.60
2022-12-31T14:31:27.924Z,12.88
2022-12-31T14:34:12.419Z,10.38
2022-12-31T14:37:07.712Z,13.18
2022-12-31T14:40:01.619Z,17.12
2022-12-31T14:42:54.778Z,10.50
2022-12-31T14:45:29.870Z,11.48
2022-12-31T14:48:22.294Z,10.70
2022-12-31T14:50:51.535Z,10.13
2022-12-31T14:53:25.965Z,10.23
2022-12-31T14:56:00.137Z,12.68
2022-12-31T14:58:40.439Z,13.40
2022-12-31T15:01:22.695Z,11.20
2022-12-31T15:03:52.224Z,11.93
2022-12-31T15:06:36.804Z,9.90
2022-12-31T15:09:21.062Z,10.48
2022-12-31T15:12:28.243Z,12.03
2022-12-31T15:15:12.677Z,8.75
2022-12-31T15:17:49.496Z,10.55
2022-12-31T15:20:21.871Z,9.93
2022-12-31T15:22:52.712Z,8.68
2022-12-31T15:25:40.364Z,12.07
2022-12-31T15:28:09.284Z,9.05
2022-12-31T15:30:48.623Z,15.10
2022-12-31T15:33:44.286Z,12.58
2022-12-31T15:36:22.182Z,14.20
2022-12-31T15:38:52.082Z,9.18
2022-12-31T15:41:29.735Z,7.80
2022-12-31T15:44:18.467Z,14.40
2022-12-31T15:46:48.841Z,10.95
2022-12-31T15:49:20.267Z,11.43
2022-12-31T15:51:55.719Z,23.90
2022-12-31T15:54:33.904Z,11.30
2022-12-31T15:57:09.114Z,11.08
2022-12-31T15:59:35.489Z,11.87
2022-12-31T16:02:04.966Z,9.88
2022-12-31T16:04:36.522Z,12.45
2022-12-31T16:07:07.011Z,11.00
2022-12-31T16:09:36.778Z,8.50
2022-12-31T16:12:11.646Z,11.48
2022-12-31T16:14:46.036Z,10.30
2022-12-31T16:17:30.073Z,11.20
2022-12-31T16:20:00.638Z,8.45
2022-12-31T16:22:40.464Z,8.18
2022-12-31T16:25:30.560Z,11.10
2022-12-31T16:27:44.401Z,10.28
2022-12-31T16:30:25.679Z,11.88
2022-12-31T16:32:58.464Z,7.40
2022-12-31T16:35:30.421Z,13.13
2022-12-31T16:38:14.802Z,13.18
2022-12-31T16:40:46.905Z,10.65
2022-12-31T16:43:25.732Z,12.20
2022-12-31T16:45:58.006Z,5.83
2022-12-31T16:48:27.355Z,8.80
2022-12-31T16:50:57.549Z,13.18
2022-12-31T16:53:30.219Z,10.15
2022-12-31T16:58:34.385Z,10.60
2022-12-31T17:01:06.759Z,9.65
2022-12-31T17:03:37.894Z,14.03
2022-12-31T17:06:11.989Z,13.45
2022-12-31T17:08:47.439Z,8.55
2022-12-31T17:11:23.362Z,10.90
2022-12-31T17:13:56.767Z,9.10
2022-12-31T17:16:27.338Z,9.33
2022-12-31T17:18:57.075Z,8.38
2022-12-31T17:21:28.864Z,10.88
2022-12-31T17:24:04.187Z,8.17
2022-12-31T17:26:35.755Z,10.98
2022-12-31T17:29:06.029Z,10.32
2022-12-31T17:31:38.447Z,10.43
2022-12-31T17:34:17.191Z,12.68
2022-12-31T17:36:58.804Z,11.50
2022-12-31T17:39:30.750Z,11.93
2022-12-31T17:42:00.527Z,9.18
2022-12-31T17:44:30.478Z,7.37
2022-12-31T17:46:59.757Z,11.12
2022-12-31T17:49:31.452Z,14.70
2022-12-31T17:52:00.821Z,10.93
2022-12-31T17:54:30.141Z,10.15
2022-12-31T17:56:59.663Z,8.65
2022-12-31T17:59:30.097Z,10.28
2022-12-31T18:02:02.320Z,10.80
2022-12-31T18:04:31.941Z,9.45
2022-12-31T18:07:01.553Z,9.60
2022-12-31T18:09:30.885Z,15.93
2022-12-31T18:12:01.853Z,12.73
2022-12-31T18:14:31.395Z,11.78
2022-12-31T18:17:01.202Z,8.45
2022-12-31T18:20:02.679Z,12.68
2022-12-31T18:22:02.040Z,11.43
2022-12-31T18:24:31.418Z,13.05
2022-12-31T18:27:00.835Z,10.98
2022-12-31T18:29:30.702Z,9.68
2022-12-31T18:32:00.469Z,8.30
2022-12-31T18:34:29.785Z,12.80
2022-12-31T18:36:59.087Z,15.60
2022-12-31T18:39:28.519Z,10.58
2022-12-31T18:41:58.092Z,16.45
2022-12-31T18:44:27.378Z,12.65
2022-12-31T18:46:56.942Z,9.65
2022-12-31T18:49:26.250Z,11.85
2022-12-31T18:51:56.976Z,15.28
2022-12-31T18:54:26.180Z,10.70
2022-12-31T18:56:57.307Z,18.90
2022-12-31T18:59:26.681Z,24.32
2022-12-31T19:01:56.408Z,18.52
2022-12-31T19:04:28.307Z,12.80
2022-12-31T19:06:57.078Z,12.18
2022-12-31T19:11:57.316Z,17.87
2022-12-31T19:14:27.207Z,11.38
2022-12-31T19:16:58.268Z,12.28
2022-12-31T19:19:27.741Z,11.15
2022-12-31T19:21:57.246Z,10.93
2022-12-31T19:24:27.903Z,11.38
2022-12-31T19:26:57.358Z,18.05
2022-12-31T19:29:29.021Z,22.75
2022-12-31T19:32:00.146Z,14.53
2022-12-31T19:34:29.821Z,13.00
2022-12-31T19:36:59.238Z,16.97
2022-12-31T19:39:28.569Z,13.90
2022-12-31T19:41:59.608Z,20.72
2022-12-31T19:44:29.423Z,16.93
2022-12-31T19:46:59.134Z,11.85
2022-12-31T19:49:28.397Z,17.65
2022-12-31T19:51:57.699Z,17.52
2022-12-31T19:54:27.072Z,21.15
2022-12-31T19:56:56.318Z,13.78
2022-12-31T19:59:26.696Z,14.05
2022-12-31T20:01:56.654Z,15.58
2022-12-31T20:04:26.015Z,9.50
2022-12-31T20:06:55.249Z,14.10
2022-12-31T20:09:24.997Z,13.10
2022-12-31T20:11:54.335Z,19.20
2022-12-31T20:14:23.731Z,15.70
2022-12-31T20:16:53.045Z,13.62
2022-12-31T20:19:22.829Z,13.68
2022-12-31T20:21:52.177Z,8.20
2022-12-31T20:24:21.471Z,14.68
2022-12-31T20:26:50.691Z,16.48
2022-12-31T20:29:20.342Z,20.48
2022-12-31T20:31:49.627Z,13.38
2022-12-31T20:34:19.280Z,13.28
2022-12-31T20:36:48.513Z,15.58
2022-12-31T20:39:18.070Z,10.60
2022-12-31T20:41:47.375Z,8.85
2022-12-31T20:44:16.627Z,15.30
2022-12-31T20:46:45.912Z,14.15
2022-12-31T20:49:15.242Z,17.73
2022-12-31T20:51:50.339Z,13.85
2022-12-31T20:54:15.643Z,18.52
2022-12-31T20:56:45.220Z,12.98
2022-12-31T20:59:15.048Z,11.57
2022-12-31T21:02:19.349Z,13.45
2022-12-31T21:04:15.553Z,12.13
2022-12-31T21:06:45.006Z,9.88
2022-12-31T21:09:14.379Z,10.98
2022-12-31T21:12:01.507Z,12.07
2022-12-31T21:14:31.003Z,11.57
2022-12-31T21:17:00.352Z,17.92
2022-12-31T21:19:29.836Z,12.65
2022-12-31T21:21:59.033Z,14.87
2022-12-31T21:24:28.814Z,18.90
2022-12-31T21:26:57.999Z,17.92
2022-12-31T21:29:31.351Z,20.80
2022-12-31T21:31:58.495Z,18.92
2022-12-31T21:34:28.015Z,14.47
2022-12-31T21:36:57.218Z,13.13
2022-12-31T21:39:26.820Z,16.65
2022-12-31T21:41:56.097Z,13.20
2022-12-31T21:44:27.280Z,8.63
2022-12-31T21:47:34.045Z,11.35
2022-12-31T21:49:34.452Z,10.38
2022-12-31T21:52:21.473Z,17.30
2022-12-31T21:55:08.870Z,12.75
2022-12-31T21:58:15.155Z,14.15
2022-12-31T22:00:43.809Z,11.83
2022-12-31T22:03:17.338Z,11.20
2022-12-31T22:06:01.214Z,11.93
2022-12-31T22:08:31.468Z,10.70
2022-12-31T22:11:00.757Z,13.38
2022-12-31T22:13:30.613Z,12.65
2022-12-31T22:16:05.278Z,11.97
2022-12-31T22:18:34.516Z,16.23
2022-12-31T22:21:10.856Z,12.40
2022-12-31T22:23:39.228Z,9.78
2022-12-31T22:26:10.044Z,16.87
2022-12-31T22:28:43.615Z,14.07
2022-12-31T22:31:19.165Z,22.75
2022-12-31T22:33:48.968Z,14.30
2022-12-31T22:36:20.974Z,11.95
2022-12-31T22:38:51.879Z,10.48
2022-12-31T22:41:22.999Z,14.78
2022-12-31T22:44:02.241Z,15.70
2022-12-31T22:46:28.112Z,11.08
2022-12-31T22:48:59.544Z,13.15
2022-12-31T22:51:56.737Z,9.80
2022-12-31T22:54:01.049Z,10.25
2022-12-31T22:56:30.441Z,12.25
2022-12-31T22:59:00.025Z,16.23
2022-12-31T23:01:31.085Z,13.20
2022-12-31T23:04:00.421Z,23.40
2022-12-31T23:06:30.237Z,47.35
2022-12-31T23:09:17.530Z,96.70
2022-12-31T23:11:47.019Z,108.87
2022-12-31T23:14:35.796Z,77.17
2022-12-31T23:17:29.510Z,83.15
2022-12-31T23:20:12.665Z,64.95
2022-12-31T23:23:00.131Z,48.00
2022-12-31T23:25:31.454Z,67.72
2022-12-31T23:28:00.968Z,54.98
2022-12-31T23:30:30.853Z,62.93
2022-12-31T23:33:00.548Z,68.87
2022-12-31T23:35:30.244Z,48.98
2022-12-31T23:38:00.281Z,28.20
2022-12-31T23:40:31.688Z,46.85
2022-12-31T23:43:02.432Z,49.00
2022-12-31T23:45:34.831Z,34.27
2022-12-31T23:48:04.957Z,39.83
2022-12-31T23:50:34.421Z,25.88
2022-12-31T23:53:04.024Z,26.30
2022-12-31T23:55:33.781Z,31.68
2022-12-31T23:58:03.236Z,30.62
